Terminal Aerodrome Forecast
Issued by NWS

Home | Current Version | Previous Version | Text Only | Print | Product List | Glossary On
Versions: 1 2 3 4 5 6 7 8 9 10 11 12 13 14 15 16 17
000
FTUS45 KREV 231437 AAA
TAFMMH
TAF AMD
KMMH 231437Z 2315/2412 29010KT P6SM SCT035
     FM231800 30012G22KT P6SM BKN040
     FM240200 30009KT P6SM FEW040=

USA.gov is the U.S. government's official web portal to all federal, state and local government web resources and services.